createdAt,value
2022-08-17T00:00:07.142Z,165.22
2022-08-17T00:01:07.232Z,166.71
2022-08-17T00:02:21.204Z,168.22
2022-08-17T00:03:08.385Z,165.22
2022-08-17T00:04:11.786Z,162.33
2022-08-17T00:05:07.585Z,160.30
2022-08-17T00:06:07.686Z,157.28
2022-08-17T00:07:07.825Z,154.80
2022-08-17T00:08:07.975Z,156.54
2022-08-17T00:09:08.127Z,154.09
2022-08-17T00:10:08.186Z,151.02
2022-08-17T00:11:08.286Z,146.38
2022-08-17T00:12:40.724Z,145.11
2022-08-17T00:13:09.564Z,142.63
2022-08-17T00:14:08.846Z,145.36
2022-08-17T00:15:10.737Z,144.98
2022-08-17T00:16:08.934Z,145.11
2022-08-17T00:17:09.033Z,146.77
2022-08-17T00:18:57.540Z,147.03
2022-08-17T00:19:10.317Z,147.42
2022-08-17T00:20:09.393Z,145.23
2022-08-17T00:21:10.429Z,146.38
2022-08-17T00:22:32.747Z,148.46
2022-08-17T00:23:10.731Z,146.25
2022-08-17T00:24:09.863Z,144.73
2022-08-17T00:25:09.959Z,141.90
2022-08-17T00:26:10.213Z,142.38
2022-08-17T00:27:10.251Z,142.26
2022-08-17T00:28:10.345Z,133.71
2022-08-17T00:29:10.430Z,129.86
2022-08-17T00:30:11.547Z,132.34
2022-08-17T00:31:10.746Z,132.65
2022-08-17T00:33:13.920Z,129.66
2022-08-17T00:33:16.423Z,127.87
2022-08-17T00:34:12.002Z,125.75
2022-08-17T00:35:11.121Z,125.75
2022-08-17T00:36:11.372Z,125.00
2022-08-17T00:37:11.411Z,125.75
2022-08-17T00:38:11.542Z,124.16
2022-08-17T00:39:11.682Z,124.25
2022-08-17T00:40:11.883Z,122.97
2022-08-17T00:41:12.061Z,123.43
2022-08-17T00:42:12.222Z,125.00
2022-08-17T00:43:12.223Z,125.66
2022-08-17T00:44:12.530Z,125.47
2022-08-17T00:45:12.430Z,126.71
2022-08-17T00:46:12.567Z,125.28
2022-08-17T00:47:12.770Z,123.52
2022-08-17T00:48:27.269Z,121.98
2022-08-17T00:49:13.924Z,120.92
2022-08-17T00:50:13.037Z,118.18
2022-08-17T00:51:13.171Z,115.80
2022-08-17T00:52:13.389Z,112.83
2022-08-17T00:53:13.438Z,111.03
2022-08-17T00:54:13.577Z,104.43
2022-08-17T00:55:13.739Z,99.86
2022-08-17T00:56:13.836Z,97.99
2022-08-17T00:57:14.029Z,98.80
2022-08-17T00:58:14.196Z,99.81
2022-08-17T00:59:14.240Z,100.47
2022-08-17T01:00:14.344Z,99.21
2022-08-17T01:01:21.705Z,97.93
2022-08-17T01:02:15.617Z,96.35
2022-08-17T01:03:14.845Z,94.44
2022-08-17T01:04:14.857Z,94.35
2022-08-17T01:05:14.991Z,92.68
2022-08-17T01:06:15.119Z,92.06
2022-08-17T01:07:15.285Z,90.27
2022-08-17T01:08:15.438Z,89.11
2022-08-17T01:09:15.519Z,88.64
2022-08-17T01:10:58.843Z,88.17
2022-08-17T01:11:16.797Z,87.25
2022-08-17T01:12:15.927Z,87.71
2022-08-17T01:13:16.095Z,88.45
2022-08-17T01:14:16.275Z,88.92
2022-08-17T01:15:16.308Z,88.36
2022-08-17T01:16:16.466Z,86.97
2022-08-17T01:17:16.566Z,81.94
2022-08-17T01:18:16.777Z,82.50
2022-08-17T01:19:16.832Z,81.54
2022-08-17T01:20:16.978Z,77.31
2022-08-17T01:21:20.665Z,75.97
2022-08-17T01:22:17.195Z,74.94
2022-08-17T01:23:20.443Z,74.54
2022-08-17T01:24:17.467Z,72.91
2022-08-17T01:25:17.592Z,70.15
2022-08-17T01:26:17.734Z,68.82
2022-08-17T01:27:18.504Z,67.32
2022-08-17T01:28:52.647Z,64.66
2022-08-17T01:29:22.201Z,61.52
2022-08-17T01:30:58.561Z,58.87
2022-08-17T01:31:19.409Z,58.50
2022-08-17T01:32:18.525Z,58.83
2022-08-17T01:33:18.713Z,59.04
2022-08-17T01:34:18.832Z,59.84
2022-08-17T01:35:18.924Z,60.36
2022-08-17T01:36:19.053Z,61.34
2022-08-17T01:37:19.194Z,60.93
2022-08-17T01:38:19.582Z,61.16
2022-08-17T01:39:20.462Z,61.16
2022-08-17T01:40:19.572Z,59.93
2022-08-17T01:41:19.713Z,58.09
2022-08-17T01:42:19.852Z,57.89
2022-08-17T01:43:20.050Z,58.33
2022-08-17T01:44:20.181Z,59.08
2022-08-17T01:45:20.253Z,58.95
2022-08-17T01:46:20.392Z,58.87
2022-08-17T01:47:20.531Z,58.58
2022-08-17T01:48:20.721Z,57.85
2022-08-17T01:49:20.857Z,57.06
2022-08-17T01:50:20.941Z,55.72
2022-08-17T01:51:21.072Z,54.59
2022-08-17T01:52:21.193Z,53.24
2022-08-17T01:53:21.329Z,51.62
2022-08-17T01:54:21.541Z,50.34
2022-08-17T01:55:27.075Z,49.33
2022-08-17T01:56:22.735Z,48.33
2022-08-17T01:57:21.849Z,47.51
2022-08-17T01:58:21.995Z,47.00
2022-08-17T01:59:22.219Z,46.45
2022-08-17T02:00:22.255Z,45.79
2022-08-17T02:01:22.413Z,44.95
2022-08-17T02:02:30.857Z,44.28
2022-08-17T02:03:23.639Z,44.05
2022-08-17T02:04:22.808Z,43.28
2022-08-17T02:05:22.878Z,42.79
2022-08-17T02:06:26.918Z,42.31
2022-08-17T02:07:26.983Z,41.89
2022-08-17T02:08:37.084Z,41.59
2022-08-17T02:09:25.645Z,41.22
2022-08-17T02:10:23.559Z,40.78
2022-08-17T02:11:23.696Z,40.47
2022-08-17T02:12:39.065Z,40.12
2022-08-17T02:13:24.959Z,39.81
2022-08-17T02:14:24.087Z,39.43
2022-08-17T02:15:24.386Z,39.17
2022-08-17T02:16:24.354Z,38.96
2022-08-17T02:17:24.479Z,38.67
2022-08-17T02:18:24.605Z,38.42
2022-08-17T02:19:24.764Z,38.42
2022-08-17T02:20:41.333Z,38.28
2022-08-17T02:21:25.975Z,38.00
2022-08-17T02:22:25.165Z,37.55
2022-08-17T02:23:25.236Z,37.42
2022-08-17T02:24:58.641Z,37.32
2022-08-17T02:25:26.626Z,37.25
2022-08-17T02:26:26.775Z,37.19
2022-08-17T02:27:25.778Z,37.19
2022-08-17T02:28:25.903Z,37.15
2022-08-17T02:29:26.045Z,37.32
2022-08-17T02:31:00.039Z,37.39
2022-08-17T02:31:27.410Z,37.52
2022-08-17T02:32:27.333Z,37.59
2022-08-17T02:33:43.131Z,37.66
2022-08-17T02:34:27.713Z,37.90
2022-08-17T02:35:26.824Z,37.96
2022-08-17T02:36:27.582Z,38.24
2022-08-17T02:37:27.174Z,38.31
2022-08-17T02:38:27.212Z,38.24
2022-08-17T02:39:27.390Z,38.14
2022-08-17T02:40:36.425Z,37.83
2022-08-17T02:41:28.587Z,38.07
2022-08-17T02:42:27.798Z,38.07
2022-08-17T02:43:27.853Z,38.35
2022-08-17T02:44:39.468Z,39.10
2022-08-17T02:45:29.123Z,39.85
2022-08-17T02:46:28.335Z,40.86
2022-08-17T02:47:28.470Z,41.93
2022-08-17T02:48:31.823Z,42.70
2022-08-17T02:49:28.612Z,44.00
2022-08-17T02:50:28.742Z,44.95
2022-08-17T02:51:28.872Z,45.94
2022-08-17T02:52:43.876Z,47.16
2022-08-17T02:53:35.972Z,48.44
2022-08-17T02:54:39.814Z,49.30
2022-08-17T02:55:30.430Z,50.65
2022-08-17T02:56:29.591Z,51.37
2022-08-17T02:57:29.821Z,52.56
2022-08-17T02:58:34.466Z,53.65
2022-08-17T02:59:30.990Z,54.31
2022-08-17T03:00:30.170Z,55.03
2022-08-17T03:01:30.256Z,54.95
2022-08-17T03:02:30.308Z,55.47
2022-08-17T03:03:30.454Z,55.32
2022-08-17T03:04:30.592Z,55.03
2022-08-17T03:05:30.818Z,55.76
2022-08-17T03:06:30.856Z,56.75
2022-08-17T03:07:30.995Z,57.41
2022-08-17T03:08:31.132Z,57.45
2022-08-17T03:09:31.302Z,57.69
2022-08-17T03:10:31.467Z,57.61
2022-08-17T03:11:31.498Z,56.67
2022-08-17T03:12:31.649Z,55.99
2022-08-17T03:13:31.788Z,54.92
2022-08-17T03:14:31.918Z,53.58
2022-08-17T03:15:32.120Z,52.63
2022-08-17T03:16:32.338Z,52.76
2022-08-17T03:17:32.354Z,53.37
2022-08-17T03:18:32.477Z,54.81
2022-08-17T03:19:32.638Z,56.25
2022-08-17T03:20:32.848Z,58.87
2022-08-17T03:21:33.057Z,60.40
2022-08-17T03:22:37.215Z,62.11
2022-08-17T03:23:34.117Z,64.46
2022-08-17T03:24:33.236Z,65.48
2022-08-17T03:25:33.379Z,66.63
2022-08-17T03:26:33.670Z,68.15
2022-08-17T03:27:33.646Z,68.37
2022-08-17T03:28:33.766Z,70.21
2022-08-17T03:29:33.918Z,70.93
2022-08-17T03:30:34.065Z,71.23
2022-08-17T03:31:34.215Z,71.79
2022-08-17T03:32:34.416Z,72.16
2022-08-17T03:33:34.406Z,72.85
2022-08-17T03:34:34.526Z,72.10
2022-08-17T03:35:34.656Z,71.11
2022-08-17T03:36:36.001Z,70.93
2022-08-17T03:37:34.883Z,69.34
2022-08-17T03:38:39.455Z,68.09
2022-08-17T03:39:35.217Z,69.69
2022-08-17T03:40:58.108Z,71.29
2022-08-17T03:41:36.497Z,72.53
2022-08-17T03:42:35.525Z,73.36
2022-08-17T03:43:35.653Z,76.04
2022-08-17T03:44:35.794Z,77.38
2022-08-17T03:45:35.948Z,77.31
2022-08-17T03:46:36.117Z,78.17
2022-08-17T03:47:36.231Z,78.47
2022-08-17T03:48:36.341Z,78.54
2022-08-17T03:49:36.471Z,78.10
2022-08-17T03:50:36.612Z,77.31
2022-08-17T03:51:36.914Z,73.88
2022-08-17T03:52:36.934Z,73.56
2022-08-17T03:53:37.023Z,74.21
2022-08-17T03:54:37.179Z,74.08
2022-08-17T03:55:37.302Z,73.36
2022-08-17T03:56:37.679Z,73.11
2022-08-17T03:57:37.634Z,72.53
2022-08-17T03:58:37.712Z,71.66
2022-08-17T03:59:37.921Z,70.21
2022-08-17T04:00:39.743Z,70.33
2022-08-17T04:01:38.258Z,70.63
2022-08-17T04:02:38.341Z,71.42
2022-08-17T04:03:38.372Z,72.47
2022-08-17T04:04:38.511Z,72.47
2022-08-17T04:05:38.664Z,72.16
2022-08-17T04:06:38.849Z,70.63
2022-08-17T04:07:39.033Z,70.45
2022-08-17T04:08:39.051Z,70.87
2022-08-17T04:09:39.219Z,69.05
2022-08-17T04:10:44.786Z,65.79
2022-08-17T04:11:40.709Z,62.53
2022-08-17T04:12:39.570Z,59.93
2022-08-17T04:13:39.710Z,58.58
2022-08-17T04:14:53.764Z,57.65
2022-08-17T04:15:41.021Z,57.17
2022-08-17T04:16:40.131Z,57.10
2022-08-17T04:17:40.279Z,57.33
2022-08-17T04:18:40.365Z,58.09
2022-08-17T04:19:40.490Z,58.21
2022-08-17T04:20:40.685Z,59.04
2022-08-17T04:21:40.798Z,59.84
2022-08-17T04:22:40.914Z,61.02
2022-08-17T04:23:41.070Z,60.62
2022-08-17T04:24:41.159Z,60.67
2022-08-17T04:25:41.549Z,60.93
2022-08-17T04:26:53.456Z,61.34
2022-08-17T04:27:42.580Z,62.62
2022-08-17T04:28:41.808Z,62.91
2022-08-17T04:29:54.318Z,64.07
2022-08-17T04:30:42.968Z,66.73
2022-08-17T04:31:42.079Z,68.60
2022-08-17T04:33:05.221Z,69.28
2022-08-17T04:33:43.448Z,71.05
2022-08-17T04:34:42.532Z,75.90
2022-08-17T04:35:42.594Z,79.21
2022-08-17T04:36:50.178Z,82.18
2022-08-17T04:37:43.846Z,84.77
2022-08-17T04:38:42.986Z,87.89
2022-08-17T04:39:43.119Z,89.30
2022-08-17T04:40:43.255Z,91.26
2022-08-17T04:41:43.451Z,95.76
2022-08-17T04:42:43.622Z,95.36
2022-08-17T04:43:43.656Z,96.74
2022-08-17T04:44:43.856Z,100.95
2022-08-17T04:45:55.905Z,101.94
2022-08-17T04:46:45.044Z,104.95
2022-08-17T04:47:44.146Z,105.75
2022-08-17T04:48:44.244Z,107.59
2022-08-17T04:49:44.375Z,112.22
2022-08-17T04:50:44.466Z,112.22
2022-08-17T04:51:54.570Z,113.14
2022-08-17T04:52:45.776Z,115.56
2022-08-17T04:53:44.867Z,115.89
2022-08-17T04:54:45.003Z,116.45
2022-08-17T04:55:45.145Z,116.21
2022-08-17T04:56:45.367Z,117.68
2022-08-17T04:57:45.435Z,118.10
2022-08-17T04:58:45.559Z,118.10
2022-08-17T04:59:45.645Z,119.11
2022-08-17T05:00:45.915Z,121.36
2022-08-17T05:01:45.950Z,125.09
2022-08-17T05:02:50.253Z,127.68
2022-08-17T05:03:46.231Z,128.66
2022-08-17T05:04:46.321Z,129.96
2022-08-17T05:05:46.544Z,133.29
2022-08-17T05:06:46.658Z,135.23
2022-08-17T05:07:46.641Z,134.90
2022-08-17T05:08:46.745Z,136.90
2022-08-17T05:09:46.900Z,136.11
2022-08-17T05:10:47.021Z,136.00
2022-08-17T05:11:47.259Z,140.23
2022-08-17T05:12:47.243Z,139.53
2022-08-17T05:13:47.442Z,142.51
2022-08-17T05:14:47.472Z,144.86
2022-08-17T05:15:48.101Z,145.87
2022-08-17T05:16:47.861Z,147.29
2022-08-17T05:17:47.911Z,146.77
2022-08-17T05:18:47.973Z,147.29
2022-08-17T05:19:51.869Z,147.42
2022-08-17T05:20:48.298Z,150.07
2022-08-17T05:21:48.453Z,152.68
2022-08-17T05:22:48.482Z,152.96
2022-08-17T05:23:54.843Z,153.80
2022-08-17T05:24:53.979Z,154.09
2022-08-17T05:25:50.376Z,153.80
2022-08-17T05:26:49.053Z,153.52
2022-08-17T05:27:49.179Z,157.88
2022-08-17T05:28:49.234Z,159.08
2022-08-17T05:29:49.409Z,160.76
2022-08-17T05:30:49.550Z,162.96
2022-08-17T05:31:49.710Z,162.33
2022-08-17T05:32:49.869Z,165.71
2022-08-17T05:33:49.859Z,165.71
2022-08-17T05:34:49.947Z,164.41
2022-08-17T05:35:50.098Z,167.04
2022-08-17T05:36:50.330Z,167.38
2022-08-17T05:37:50.396Z,165.55
2022-08-17T05:38:50.439Z,170.28
2022-08-17T05:39:50.639Z,167.88
2022-08-17T05:40:50.679Z,163.76
2022-08-17T05:41:50.907Z,160.92
2022-08-17T05:42:51.314Z,163.60
2022-08-17T05:43:56.053Z,163.92
2022-08-17T05:44:52.157Z,164.57
2022-08-17T05:45:55.555Z,165.06
2022-08-17T05:46:52.417Z,159.69
2022-08-17T05:47:51.700Z,158.18
2022-08-17T05:48:51.624Z,157.43
2022-08-17T05:49:51.766Z,159.08
2022-08-17T05:50:51.914Z,162.65
2022-08-17T05:51:51.996Z,160.92
2022-08-17T05:52:52.348Z,160.92
2022-08-17T05:53:52.466Z,158.32
2022-08-17T05:54:52.407Z,155.09
2022-08-17T05:55:52.546Z,153.10
2022-08-17T05:56:52.706Z,147.94
2022-08-17T05:57:53.762Z,144.35
2022-08-17T05:58:52.994Z,144.98
2022-08-17T05:59:53.033Z,145.23
2022-08-17T06:00:53.257Z,143.73
2022-08-17T06:01:53.244Z,140.35
2022-08-17T06:02:53.666Z,139.29
2022-08-17T06:03:53.477Z,136.90
2022-08-17T06:04:53.617Z,138.03
2022-08-17T06:05:53.734Z,136.00
2022-08-17T06:06:53.895Z,134.14
2022-08-17T06:07:53.994Z,135.34
2022-08-17T06:08:54.294Z,137.46
2022-08-17T06:09:54.231Z,144.60
2022-08-17T06:10:54.362Z,147.03
2022-08-17T06:11:54.516Z,144.11
2022-08-17T06:12:54.691Z,141.18
2022-08-17T06:13:54.893Z,141.42
2022-08-17T06:14:54.883Z,146.25
2022-08-17T06:15:55.093Z,147.55
2022-08-17T06:16:55.132Z,147.29
2022-08-17T06:17:55.282Z,149.80
2022-08-17T06:18:55.473Z,148.86
2022-08-17T06:19:55.511Z,151.43
2022-08-17T06:20:55.651Z,152.54
2022-08-17T06:21:55.883Z,151.57
2022-08-17T06:22:55.883Z,151.70
2022-08-17T06:23:56.115Z,151.29
2022-08-17T06:24:56.148Z,156.69
2022-08-17T06:25:56.231Z,158.32
2022-08-17T06:26:56.529Z,156.10
2022-08-17T06:27:56.519Z,155.52
2022-08-17T06:28:56.613Z,151.43
2022-08-17T06:29:56.754Z,150.07
2022-08-17T06:31:00.866Z,148.07
2022-08-17T06:31:57.241Z,152.54
2022-08-17T06:32:57.136Z,155.09
2022-08-17T06:33:57.221Z,156.69
2022-08-17T06:34:57.330Z,157.88
2022-08-17T06:35:57.410Z,159.99
2022-08-17T06:36:57.662Z,159.54
2022-08-17T06:37:57.673Z,161.54
2022-08-17T06:38:57.789Z,160.61
2022-08-17T06:39:57.955Z,160.46
2022-08-17T06:40:58.049Z,157.73
2022-08-17T06:41:58.209Z,157.43
2022-08-17T06:43:05.710Z,158.48
2022-08-17T06:43:59.357Z,163.44
2022-08-17T06:44:58.488Z,162.17
2022-08-17T06:45:58.648Z,160.30
2022-08-17T06:46:58.807Z,158.93
2022-08-17T06:47:58.910Z,158.93
2022-08-17T06:48:58.947Z,162.65
2022-08-17T06:49:59.052Z,170.63
2022-08-17T06:50:59.196Z,178.67
2022-08-17T06:51:59.358Z,183.38
2022-08-17T06:52:59.726Z,185.20
2022-08-17T06:53:59.529Z,188.39
2022-08-17T06:54:59.612Z,191.47
2022-08-17T06:55:59.749Z,193.39
2022-08-17T06:56:59.967Z,194.31
2022-08-17T06:58:00.064Z,199.87
2022-08-17T06:59:01.127Z,197.35
2022-08-17T07:00:00.280Z,196.28
2022-08-17T07:01:00.401Z,192.82
2022-08-17T07:02:00.537Z,188.94
2022-08-17T07:03:00.628Z,184.80
2022-08-17T07:04:06.422Z,180.60
2022-08-17T07:05:01.859Z,173.65
2022-08-17T07:06:00.939Z,172.39
2022-08-17T07:07:01.185Z,169.93
2022-08-17T07:08:01.191Z,171.68
2022-08-17T07:09:01.530Z,174.19
2022-08-17T07:10:01.416Z,171.15
2022-08-17T07:11:01.564Z,170.11
2022-08-17T07:12:01.665Z,177.15
2022-08-17T07:13:01.766Z,185.01
2022-08-17T07:14:01.946Z,190.47
2022-08-17T07:15:02.107Z,195.12
2022-08-17T07:16:02.117Z,197.35
2022-08-17T07:17:02.204Z,200.11
2022-08-17T07:18:02.725Z,204.22
2022-08-17T07:19:02.695Z,204.35
2022-08-17T07:20:02.650Z,205.50
2022-08-17T07:21:02.754Z,207.19
2022-08-17T07:22:02.840Z,204.60
2022-08-17T07:23:02.984Z,205.37
2022-08-17T07:24:03.174Z,197.94
2022-08-17T07:25:03.227Z,193.73
2022-08-17T07:26:03.348Z,190.80
2022-08-17T07:27:03.468Z,195.58
2022-08-17T07:28:07.171Z,203.46
2022-08-17T07:29:03.885Z,207.19
2022-08-17T07:30:09.521Z,205.76
2022-08-17T07:31:04.987Z,203.84
2022-08-17T07:32:04.075Z,201.34
2022-08-17T07:33:04.184Z,207.85
2022-08-17T07:34:04.440Z,209.97
2022-08-17T07:35:04.360Z,207.98
2022-08-17T07:36:04.528Z,205.24
2022-08-17T07:37:04.623Z,205.24
2022-08-17T07:38:04.712Z,208.51
2022-08-17T07:39:05.972Z,212.15
2022-08-17T07:40:15.797Z,218.07
2022-08-17T07:41:06.076Z,219.97
2022-08-17T07:42:05.252Z,219.23
2022-08-17T07:43:05.350Z,216.91
2022-08-17T07:44:05.462Z,215.91
2022-08-17T07:45:05.620Z,213.25
2022-08-17T07:46:05.662Z,209.97
2022-08-17T07:47:05.812Z,214.50
2022-08-17T07:48:05.940Z,218.79
2022-08-17T07:49:06.043Z,215.21
2022-08-17T07:50:06.211Z,210.51
2022-08-17T07:51:06.492Z,211.19
2022-08-17T07:52:47.660Z,215.91
2022-08-17T07:53:07.591Z,214.50
2022-08-17T07:54:14.396Z,208.51
2022-08-17T07:55:07.830Z,200.24
2022-08-17T07:56:07.081Z,192.60
2022-08-17T07:57:07.131Z,183.18
2022-08-17T07:58:07.180Z,184.19
2022-08-17T07:59:07.290Z,192.60
2022-08-17T08:00:07.423Z,199.63
2022-08-17T08:01:08.613Z,208.24
2022-08-17T08:02:07.796Z,215.63
2022-08-17T08:03:07.770Z,221.15
2022-08-17T08:04:07.870Z,226.03
2022-08-17T08:05:08.939Z,228.87
2022-08-17T08:06:08.140Z,233.26
2022-08-17T08:07:08.354Z,232.76
2022-08-17T08:08:08.350Z,233.09
2022-08-17T08:09:08.509Z,228.55
2022-08-17T08:10:08.656Z,209.04
2022-08-17T08:11:08.950Z,201.71
2022-08-17T08:12:08.939Z,190.25
2022-08-17T08:13:14.222Z,180.21
2022-08-17T08:14:09.076Z,168.56
2022-08-17T08:15:09.208Z,163.76
2022-08-17T08:16:09.338Z,158.48
2022-08-17T08:17:09.590Z,153.38
2022-08-17T08:18:09.599Z,147.81
2022-08-17T08:19:09.688Z,140.47
2022-08-17T08:20:51.260Z,138.71
2022-08-17T08:21:10.957Z,135.23
2022-08-17T08:22:10.221Z,134.58
2022-08-17T08:23:10.199Z,135.78
2022-08-17T08:24:10.338Z,134.36
2022-08-17T08:25:10.478Z,130.37
2022-08-17T08:26:13.142Z,119.97
2022-08-17T08:27:10.827Z,108.08
2022-08-17T08:28:10.867Z,98.98
2022-08-17T08:29:10.988Z,94.03
2022-08-17T08:30:11.158Z,90.17
2022-08-17T08:31:11.267Z,84.42
2022-08-17T08:32:11.379Z,78.39
2022-08-17T08:33:11.628Z,72.91
2022-08-17T08:34:53.449Z,67.16
2022-08-17T08:35:12.935Z,62.58
2022-08-17T08:36:11.894Z,57.21
2022-08-17T08:37:17.135Z,52.97
2022-08-17T08:38:13.156Z,49.33
2022-08-17T08:39:12.317Z,47.40
2022-08-17T08:40:12.452Z,45.64
2022-08-17T08:41:12.552Z,44.47
2022-08-17T08:42:12.697Z,43.10
2022-08-17T08:43:12.805Z,42.10
2022-08-17T08:44:13.068Z,42.05
2022-08-17T08:45:13.763Z,41.06
2022-08-17T08:46:13.175Z,39.32
2022-08-17T08:47:13.302Z,37.69
2022-08-17T08:48:46.153Z,37.59
2022-08-17T08:49:14.684Z,38.81
2022-08-17T08:50:30.265Z,38.96
2022-08-17T08:51:14.841Z,39.14
2022-08-17T08:52:13.966Z,38.21
2022-08-17T08:53:14.075Z,38.99
2022-08-17T08:54:14.222Z,38.31
2022-08-17T08:55:14.508Z,37.52
2022-08-17T08:56:14.475Z,38.56
2022-08-17T08:57:34.185Z,39.73
2022-08-17T08:58:31.448Z,40.50
2022-08-17T08:59:15.879Z,40.08
2022-08-17T09:00:15.178Z,40.94
2022-08-17T09:01:16.607Z,40.43
2022-08-17T09:02:15.253Z,38.56
2022-08-17T09:03:15.427Z,36.16
2022-08-17T09:04:24.706Z,34.83
2022-08-17T09:05:16.808Z,34.86
2022-08-17T09:06:28.855Z,34.77
2022-08-17T09:07:16.902Z,34.37
2022-08-17T09:08:16.203Z,33.92
2022-08-17T09:09:16.184Z,32.88
2022-08-17T09:10:16.332Z,32.52
2022-08-17T09:11:16.436Z,32.73
2022-08-17T09:12:16.601Z,33.04
2022-08-17T09:13:16.725Z,32.42
2022-08-17T09:14:21.606Z,31.52
2022-08-17T09:15:17.943Z,30.15
2022-08-17T09:16:17.072Z,29.12
2022-08-17T09:17:18.572Z,28.56
2022-08-17T09:19:01.333Z,28.62
2022-08-17T09:19:18.441Z,28.27
2022-08-17T09:20:27.633Z,27.93
2022-08-17T09:21:18.709Z,27.66
2022-08-17T09:22:17.830Z,27.26
2022-08-17T09:23:18.075Z,26.79
2022-08-17T09:24:20.721Z,26.30
2022-08-17T09:25:18.255Z,26.18
2022-08-17T09:26:18.379Z,26.31
2022-08-17T09:27:18.523Z,26.30
2022-08-17T09:28:18.847Z,26.03
2022-08-17T09:29:18.788Z,25.60
2022-08-17T09:30:18.937Z,25.46
2022-08-17T09:31:19.011Z,25.99
2022-08-17T09:32:19.228Z,26.03
2022-08-17T09:33:19.399Z,25.92
2022-08-17T09:34:19.411Z,27.03
2022-08-17T09:35:19.553Z,28.27
2022-08-17T09:36:19.688Z,28.60
2022-08-17T09:37:19.829Z,27.53
2022-08-17T09:38:19.997Z,26.91
2022-08-17T09:39:20.227Z,27.45
2022-08-17T09:40:20.332Z,26.79
2022-08-17T09:41:20.405Z,26.38
2022-08-17T09:42:20.517Z,27.90
2022-08-17T09:43:20.668Z,29.33
2022-08-17T09:44:23.559Z,29.74
2022-08-17T09:45:20.947Z,30.13
2022-08-17T09:46:21.095Z,31.26
2022-08-17T09:47:21.159Z,30.82
2022-08-17T09:48:21.317Z,29.31
2022-08-17T09:49:25.179Z,28.29
2022-08-17T09:50:55.557Z,27.19
2022-08-17T09:51:22.707Z,26.38
2022-08-17T09:52:21.836Z,25.68
2022-08-17T09:53:21.997Z,24.98
2022-08-17T09:54:38.666Z,24.39
2022-08-17T09:55:23.376Z,23.88
2022-08-17T09:56:22.357Z,23.52
2022-08-17T09:57:31.350Z,23.31
2022-08-17T09:58:23.679Z,22.97
2022-08-17T09:59:23.885Z,22.95
2022-08-17T10:00:22.934Z,22.67
2022-08-17T10:01:23.078Z,22.55
2022-08-17T10:02:23.144Z,22.43
2022-08-17T10:03:23.284Z,22.12
2022-08-17T10:04:27.440Z,22.14
2022-08-17T10:05:24.574Z,22.07
2022-08-17T10:06:23.777Z,22.07
2022-08-17T10:07:23.783Z,21.96
2022-08-17T10:08:23.885Z,21.96
2022-08-17T10:09:24.051Z,21.75
2022-08-17T10:10:24.158Z,21.75
2022-08-17T10:11:33.425Z,21.77
2022-08-17T10:12:30.194Z,21.86
2022-08-17T10:13:25.502Z,21.91
2022-08-17T10:14:36.742Z,22.07
2022-08-17T10:15:25.762Z,22.12
2022-08-17T10:16:25.012Z,22.19
2022-08-17T10:17:25.006Z,22.28
2022-08-17T10:18:25.241Z,22.21
2022-08-17T10:19:26.271Z,22.14
2022-08-17T10:20:25.392Z,22.21
2022-08-17T10:21:25.705Z,22.26
2022-08-17T10:22:35.022Z,22.48
2022-08-17T10:23:26.811Z,22.55
2022-08-17T10:24:25.930Z,22.55
2022-08-17T10:25:37.550Z,22.50
2022-08-17T10:26:27.261Z,22.45
2022-08-17T10:27:27.360Z,22.58
2022-08-17T10:28:29.865Z,22.85
2022-08-17T10:29:28.823Z,23.18
2022-08-17T10:30:26.755Z,23.12
2022-08-17T10:31:35.514Z,23.12
2022-08-17T10:32:28.009Z,23.15
2022-08-17T10:33:27.169Z,23.31
2022-08-17T10:34:27.286Z,23.99
2022-08-17T10:35:27.429Z,24.03
2022-08-17T10:36:27.751Z,23.92
2022-08-17T10:37:27.693Z,24.46
2022-08-17T10:38:27.781Z,25.83
2022-08-17T10:39:28.040Z,26.85
2022-08-17T10:40:28.084Z,27.20
2022-08-17T10:41:28.246Z,27.40
2022-08-17T10:42:30.362Z,28.18
2022-08-17T10:43:28.446Z,28.64
2022-08-17T10:44:38.828Z,30.55
2022-08-17T10:45:29.689Z,32.50
2022-08-17T10:46:31.198Z,34.66
2022-08-17T10:47:29.147Z,35.57
2022-08-17T10:48:29.088Z,36.44
2022-08-17T10:49:29.228Z,37.69
2022-08-17T10:50:29.360Z,39.54
2022-08-17T10:51:29.597Z,40.00
2022-08-17T10:52:29.669Z,40.94
2022-08-17T10:53:29.776Z,42.57
2022-08-17T10:54:29.913Z,42.74
2022-08-17T10:55:29.998Z,42.61
2022-08-17T10:56:30.197Z,41.80
2022-08-17T10:57:30.405Z,40.66
2022-08-17T10:58:30.426Z,39.40
2022-08-17T10:59:30.516Z,38.67
2022-08-17T11:00:30.652Z,38.28
2022-08-17T11:01:30.826Z,37.96
2022-08-17T11:02:31.055Z,37.86
2022-08-17T11:03:31.025Z,37.42
2022-08-17T11:04:31.167Z,38.45
2022-08-17T11:05:31.325Z,39.36
2022-08-17T11:06:31.465Z,40.15
2022-08-17T11:07:31.585Z,39.70
2022-08-17T11:08:31.963Z,39.14
2022-08-17T11:09:31.837Z,39.54
2022-08-17T11:10:31.975Z,39.51
2022-08-17T11:11:32.062Z,41.06
2022-08-17T11:12:32.297Z,40.31
2022-08-17T11:13:32.324Z,38.85
2022-08-17T11:14:32.457Z,37.93
2022-08-17T11:15:32.622Z,37.02
2022-08-17T11:16:32.716Z,36.44
2022-08-17T11:17:32.956Z,35.81
2022-08-17T11:18:33.000Z,36.57
2022-08-17T11:19:33.142Z,38.60
2022-08-17T11:20:33.270Z,40.04
2022-08-17T11:21:33.422Z,40.82
2022-08-17T11:22:33.843Z,41.39
2022-08-17T11:23:33.644Z,40.82
2022-08-17T11:24:33.791Z,40.54
2022-08-17T11:25:33.931Z,40.58
2022-08-17T11:26:34.064Z,40.98
2022-08-17T11:27:34.272Z,40.62
2022-08-17T11:28:37.413Z,39.85
2022-08-17T11:29:34.451Z,39.10
2022-08-17T11:30:34.573Z,38.49
2022-08-17T11:31:38.019Z,37.49
2022-08-17T11:32:35.954Z,37.66
2022-08-17T11:33:36.720Z,37.83
2022-08-17T11:34:35.114Z,37.25
2022-08-17T11:35:35.242Z,37.32
2022-08-17T11:36:35.393Z,37.25
2022-08-17T11:37:35.530Z,37.39
2022-08-17T11:38:35.740Z,37.69
2022-08-17T11:39:35.831Z,38.14
2022-08-17T11:40:36.159Z,38.14
2022-08-17T11:41:36.071Z,37.42
2022-08-17T11:42:36.165Z,36.57
2022-08-17T11:43:39.585Z,36.28
2022-08-17T11:44:37.430Z,36.12
2022-08-17T11:45:36.696Z,36.25
2022-08-17T11:46:36.940Z,35.57
2022-08-17T11:47:36.829Z,35.12
2022-08-17T11:48:36.951Z,34.17
2022-08-17T11:49:37.051Z,33.79
2022-08-17T11:50:37.189Z,33.44
2022-08-17T11:51:37.538Z,33.73
2022-08-17T11:52:37.478Z,34.09
2022-08-17T11:53:37.557Z,33.68
2022-08-17T11:54:37.717Z,34.17
2022-08-17T11:55:41.862Z,35.33
2022-08-17T11:56:39.025Z,35.63
2022-08-17T11:57:38.057Z,36.12
2022-08-17T11:58:38.156Z,36.38
2022-08-17T11:59:38.308Z,36.31
2022-08-17T12:00:38.444Z,36.66
2022-08-17T12:01:38.518Z,36.19
2022-08-17T12:02:38.687Z,36.44
2022-08-17T12:03:38.776Z,36.70
2022-08-17T12:04:39.011Z,36.92
2022-08-17T12:05:39.045Z,36.35
2022-08-17T12:06:39.174Z,37.02
2022-08-17T12:07:39.390Z,37.15
2022-08-17T12:08:39.455Z,37.22
2022-08-17T12:09:39.584Z,37.83
2022-08-17T12:10:39.744Z,38.52
2022-08-17T12:11:58.820Z,39.06
2022-08-17T12:12:40.947Z,38.88
2022-08-17T12:13:40.126Z,38.28
2022-08-17T12:15:08.508Z,37.86
2022-08-17T12:15:41.386Z,38.45
2022-08-17T12:16:40.416Z,38.35
2022-08-17T12:17:42.868Z,37.83
2022-08-17T12:18:40.704Z,38.21
2022-08-17T12:19:40.834Z,39.62
2022-08-17T12:20:40.973Z,40.04
2022-08-17T12:21:41.047Z,40.50
2022-08-17T12:22:41.196Z,42.14
2022-08-17T12:23:41.294Z,41.47
2022-08-17T12:24:41.443Z,41.59
2022-08-17T12:25:41.644Z,41.06
2022-08-17T12:26:41.669Z,40.19
2022-08-17T12:27:46.125Z,39.96
2022-08-17T12:28:43.076Z,39.51
2022-08-17T12:29:42.082Z,39.03
2022-08-17T12:30:42.182Z,37.86
2022-08-17T12:31:42.293Z,36.83
2022-08-17T12:32:42.451Z,36.73
2022-08-17T12:33:42.706Z,36.00
2022-08-17T12:34:42.665Z,34.51
2022-08-17T12:35:42.822Z,33.22
2022-08-17T12:36:43.082Z,32.22
2022-08-17T12:37:43.117Z,31.45
2022-08-17T12:38:43.192Z,31.21
2022-08-17T12:39:43.379Z,31.21
2022-08-17T12:40:43.462Z,31.42
2022-08-17T12:41:43.734Z,31.71
2022-08-17T12:42:43.741Z,32.22
2022-08-17T12:43:43.865Z,31.76
2022-08-17T12:44:50.446Z,31.59